sensor_id;sensor_type;location;lat;lon;timestamp;temperature;humidity
32400;DHT22;45045;45.440;9.178;2023-02-01T00:02:00;10.00;99.80
32400;DHT22;45045;45.440;9.178;2023-02-01T00:04:26;10.00;99.00
32400;DHT22;45045;45.440;9.178;2023-02-01T00:06:52;10.00;99.00
32400;DHT22;45045;45.440;9.178;2023-02-01T00:09:18;10.00;98.70
32400;DHT22;45045;45.440;9.178;2023-02-01T00:11:44;9.90;98.70
32400;DHT22;45045;45.440;9.178;2023-02-01T00:14:13;10.00;98.30
32400;DHT22;45045;45.440;9.178;2023-02-01T00:16:38;9.90;98.30
32400;DHT22;45045;45.440;9.178;2023-02-01T00:19:07;9.90;98.40
32400;DHT22;45045;45.440;9.178;2023-02-01T00:21:34;9.90;98.50
32400;DHT22;45045;45.440;9.178;2023-02-01T00:24:00;9.90;98.40
32400;DHT22;45045;45.440;9.178;2023-02-01T00:26:44;9.80;98.40
32400;DHT22;45045;45.440;9.178;2023-02-01T00:29:15;9.90;98.00
32400;DHT22;45045;45.440;9.178;2023-02-01T00:31:42;9.80;98.30
32400;DHT22;45045;45.440;9.178;2023-02-01T00:34:13;9.80;98.30
32400;DHT22;45045;45.440;9.178;2023-02-01T00:36:40;9.80;98.10
32400;DHT22;45045;45.440;9.178;2023-02-01T00:39:05;9.80;98.10
32400;DHT22;45045;45.440;9.178;2023-02-01T00:41:31;9.80;98.10
32400;DHT22;45045;45.440;9.178;2023-02-01T00:43:57;9.70;98.20
32400;DHT22;45045;45.440;9.178;2023-02-01T00:46:25;9.70;97.70
32400;DHT22;45045;45.440;9.178;2023-02-01T00:48:50;9.70;97.70
32400;DHT22;45045;45.440;9.178;2023-02-01T00:51:19;9.80;97.50
32400;DHT22;45045;45.440;9.178;2023-02-01T00:53:45;9.80;97.20
32400;DHT22;45045;45.440;9.178;2023-02-01T00:56:11;9.70;96.80
32400;DHT22;45045;45.440;9.178;2023-02-01T00:58:37;9.70;96.40
32400;DHT22;45045;45.440;9.178;2023-02-01T01:03:29;9.60;95.80
32400;DHT22;45045;45.440;9.178;2023-02-01T01:05:59;9.60;95.80
32400;DHT22;45045;45.440;9.178;2023-02-01T01:08:26;9.60;95.60
32400;DHT22;45045;45.440;9.178;2023-02-01T01:10:52;9.60;95.50
32400;DHT22;45045;45.440;9.178;2023-02-01T01:13:18;9.60;95.50
32400;DHT22;45045;45.440;9.178;2023-02-01T01:15:44;9.60;95.40
32400;DHT22;45045;45.440;9.178;2023-02-01T01:18:10;9.60;95.50
32400;DHT22;45045;45.440;9.178;2023-02-01T01:20:38;9.60;95.20
32400;DHT22;45045;45.440;9.178;2023-02-01T01:23:04;9.60;95.20
32400;DHT22;45045;45.440;9.178;2023-02-01T01:25:30;9.60;94.90
32400;DHT22;45045;45.440;9.178;2023-02-01T01:27:56;9.50;94.50
32400;DHT22;45045;45.440;9.178;2023-02-01T01:30:22;9.60;94.40
32400;DHT22;45045;45.440;9.178;2023-02-01T01:32:48;9.60;94.60
32400;DHT22;45045;45.440;9.178;2023-02-01T01:35:13;9.60;93.90
32400;DHT22;45045;45.440;9.178;2023-02-01T01:37:39;9.60;93.50
32400;DHT22;45045;45.440;9.178;2023-02-01T01:40:06;9.60;93.20
32400;DHT22;45045;45.440;9.178;2023-02-01T01:42:40;9.50;93.20
32400;DHT22;45045;45.440;9.178;2023-02-01T01:45:35;9.60;92.20
32400;DHT22;45045;45.440;9.178;2023-02-01T01:48:05;9.60;91.80
32400;DHT22;45045;45.440;9.178;2023-02-01T01:50:40;9.60;91.20
32400;DHT22;45045;45.440;9.178;2023-02-01T01:53:12;9.60;91.10
32400;DHT22;45045;45.440;9.178;2023-02-01T01:55:43;9.50;90.80
32400;DHT22;45045;45.440;9.178;2023-02-01T01:58:14;9.50;90.90
32400;DHT22;45045;45.440;9.178;2023-02-01T02:00:41;9.50;90.80
32400;DHT22;45045;45.440;9.178;2023-02-01T02:03:14;9.50;90.80
32400;DHT22;45045;45.440;9.178;2023-02-01T02:05:43;9.50;90.50
32400;DHT22;45045;45.440;9.178;2023-02-01T02:08:10;9.50;90.40
32400;DHT22;45045;45.440;9.178;2023-02-01T02:10:36;9.50;90.20
32400;DHT22;45045;45.440;9.178;2023-02-01T02:13:21;9.40;90.40
32400;DHT22;45045;45.440;9.178;2023-02-01T02:24:39;9.40;89.80
32400;DHT22;45045;45.440;9.178;2023-02-01T02:38:52;9.30;88.40
32400;DHT22;45045;45.440;9.178;2023-02-01T02:44:20;9.30;88.20
32400;DHT22;45045;45.440;9.178;2023-02-01T02:47:51;9.30;88.40
32400;DHT22;45045;45.440;9.178;2023-02-01T02:53:28;9.30;87.00
32400;DHT22;45045;45.440;9.178;2023-02-01T02:56:15;9.40;86.50
32400;DHT22;45045;45.440;9.178;2023-02-01T02:59:01;9.40;86.40
32400;DHT22;45045;45.440;9.178;2023-02-01T03:01:48;9.40;86.10
32400;DHT22;45045;45.440;9.178;2023-02-01T03:04:32;9.30;85.50
32400;DHT22;45045;45.440;9.178;2023-02-01T03:07:13;9.40;85.00
32400;DHT22;45045;45.440;9.178;2023-02-01T03:09:40;9.70;86.20
32400;DHT22;45045;45.440;9.178;2023-02-01T03:12:12;9.70;83.20
32400;DHT22;45045;45.440;9.178;2023-02-01T03:15:06;9.60;82.80
32400;DHT22;45045;45.440;9.178;2023-02-01T03:17:37;9.60;83.60
32400;DHT22;45045;45.440;9.178;2023-02-01T03:20:06;9.50;83.50
32400;DHT22;45045;45.440;9.178;2023-02-01T03:22:33;9.50;83.20
32400;DHT22;45045;45.440;9.178;2023-02-01T03:25:25;9.60;83.50
32400;DHT22;45045;45.440;9.178;2023-02-01T03:27:57;9.60;83.00
32400;DHT22;45045;45.440;9.178;2023-02-01T03:30:37;9.50;82.80
32400;DHT22;45045;45.440;9.178;2023-02-01T03:33:06;9.50;82.70
32400;DHT22;45045;45.440;9.178;2023-02-01T03:41:42;9.50;82.60
32400;DHT22;45045;45.440;9.178;2023-02-01T03:44:34;9.50;82.30
32400;DHT22;45045;45.440;9.178;2023-02-01T03:47:12;9.50;82.80
32400;DHT22;45045;45.440;9.178;2023-02-01T03:49:45;9.50;82.00
32400;DHT22;45045;45.440;9.178;2023-02-01T03:52:18;9.50;82.00
32400;DHT22;45045;45.440;9.178;2023-02-01T03:54:46;9.50;82.60
32400;DHT22;45045;45.440;9.178;2023-02-01T03:57:14;9.50;82.20
32400;DHT22;45045;45.440;9.178;2023-02-01T03:59:43;9.60;82.30
32400;DHT22;45045;45.440;9.178;2023-02-01T04:02:09;9.60;81.70
32400;DHT22;45045;45.440;9.178;2023-02-01T04:04:42;9.70;82.30
32400;DHT22;45045;45.440;9.178;2023-02-01T04:07:07;9.70;82.90
32400;DHT22;45045;45.440;9.178;2023-02-01T04:09:33;9.60;82.80
32400;DHT22;45045;45.440;9.178;2023-02-01T04:11:59;9.60;84.40
32400;DHT22;45045;45.440;9.178;2023-02-01T04:14:24;9.70;84.30
32400;DHT22;45045;45.440;9.178;2023-02-01T04:16:50;9.70;84.30
32400;DHT22;45045;45.440;9.178;2023-02-01T04:19:16;9.70;84.90
32400;DHT22;45045;45.440;9.178;2023-02-01T04:21:41;9.90;84.80
32400;DHT22;45045;45.440;9.178;2023-02-01T04:24:07;9.80;86.00
32400;DHT22;45045;45.440;9.178;2023-02-01T04:26:34;9.70;86.10
32400;DHT22;45045;45.440;9.178;2023-02-01T04:28:59;9.70;87.50
32400;DHT22;45045;45.440;9.178;2023-02-01T04:31:25;9.70;88.00
32400;DHT22;45045;45.440;9.178;2023-02-01T04:33:55;9.70;88.70
32400;DHT22;45045;45.440;9.178;2023-02-01T04:36:23;9.70;90.90
32400;DHT22;45045;45.440;9.178;2023-02-01T04:38:52;9.70;90.90
32400;DHT22;45045;45.440;9.178;2023-02-01T04:41:18;9.70;90.90
32400;DHT22;45045;45.440;9.178;2023-02-01T04:43:46;9.70;90.80
32400;DHT22;45045;45.440;9.178;2023-02-01T04:46:11;9.60;91.10
32400;DHT22;45045;45.440;9.178;2023-02-01T04:48:37;9.60;91.00
32400;DHT22;45045;45.440;9.178;2023-02-01T04:51:03;9.60;92.50
32400;DHT22;45045;45.440;9.178;2023-02-01T04:53:28;9.60;92.40
32400;DHT22;45045;45.440;9.178;2023-02-01T04:55:55;9.70;92.30
32400;DHT22;45045;45.440;9.178;2023-02-01T04:58:21;9.60;92.20
32400;DHT22;45045;45.440;9.178;2023-02-01T05:00:46;9.70;92.30
32400;DHT22;45045;45.440;9.178;2023-02-01T05:03:12;9.60;92.80
32400;DHT22;45045;45.440;9.178;2023-02-01T05:05:38;9.60;92.90
32400;DHT22;45045;45.440;9.178;2023-02-01T05:08:03;9.60;92.90
32400;DHT22;45045;45.440;9.178;2023-02-01T05:10:29;9.70;93.00
32400;DHT22;45045;45.440;9.178;2023-02-01T05:12:55;9.70;93.70
32400;DHT22;45045;45.440;9.178;2023-02-01T05:15:39;9.70;94.30
32400;DHT22;45045;45.440;9.178;2023-02-01T05:18:04;9.80;94.50
32400;DHT22;45045;45.440;9.178;2023-02-01T05:20:30;9.80;94.70
32400;DHT22;45045;45.440;9.178;2023-02-01T05:22:56;9.80;95.00
32400;DHT22;45045;45.440;9.178;2023-02-01T05:25:21;9.80;95.40
32400;DHT22;45045;45.440;9.178;2023-02-01T05:27:47;9.80;94.80
32400;DHT22;45045;45.440;9.178;2023-02-01T05:30:13;9.70;95.20
32400;DHT22;45045;45.440;9.178;2023-02-01T05:32:38;9.80;95.90
32400;DHT22;45045;45.440;9.178;2023-02-01T05:35:04;9.70;95.80
32400;DHT22;45045;45.440;9.178;2023-02-01T05:37:30;9.70;95.80
32400;DHT22;45045;45.440;9.178;2023-02-01T05:39:56;9.80;95.70
32400;DHT22;45045;45.440;9.178;2023-02-01T05:42:21;9.70;95.80
32400;DHT22;45045;45.440;9.178;2023-02-01T05:44:47;9.70;95.90
32400;DHT22;45045;45.440;9.178;2023-02-01T05:47:13;9.70;96.20
32400;DHT22;45045;45.440;9.178;2023-02-01T05:49:38;9.70;96.30
32400;DHT22;45045;45.440;9.178;2023-02-01T05:52:04;9.70;96.60
32400;DHT22;45045;45.440;9.178;2023-02-01T05:54:30;9.70;96.30
32400;DHT22;45045;45.440;9.178;2023-02-01T05:56:57;9.70;96.60
32400;DHT22;45045;45.440;9.178;2023-02-01T05:59:22;9.70;96.80
32400;DHT22;45045;45.440;9.178;2023-02-01T06:01:48;9.70;97.00
32400;DHT22;45045;45.440;9.178;2023-02-01T06:04:14;9.70;97.20
32400;DHT22;45045;45.440;9.178;2023-02-01T06:06:40;9.70;97.30
32400;DHT22;45045;45.440;9.178;2023-02-01T06:09:10;9.70;97.10
32400;DHT22;45045;45.440;9.178;2023-02-01T06:11:38;9.70;97.20
32400;DHT22;45045;45.440;9.178;2023-02-01T06:14:09;9.60;97.30
32400;DHT22;45045;45.440;9.178;2023-02-01T06:16:36;9.60;97.30
32400;DHT22;45045;45.440;9.178;2023-02-01T06:19:01;9.50;97.50
32400;DHT22;45045;45.440;9.178;2023-02-01T06:21:28;9.50;97.60
32400;DHT22;45045;45.440;9.178;2023-02-01T06:23:54;9.40;97.50
32400;DHT22;45045;45.440;9.178;2023-02-01T06:26:20;9.40;97.40
32400;DHT22;45045;45.440;9.178;2023-02-01T06:28:46;9.40;97.40
32400;DHT22;45045;45.440;9.178;2023-02-01T06:31:12;9.30;97.40
32400;DHT22;45045;45.440;9.178;2023-02-01T06:33:38;9.30;97.40
32400;DHT22;45045;45.440;9.178;2023-02-01T06:36:08;9.40;97.50
32400;DHT22;45045;45.440;9.178;2023-02-01T06:38:35;9.30;97.60
32400;DHT22;45045;45.440;9.178;2023-02-01T06:41:03;9.30;98.00
32400;DHT22;45045;45.440;9.178;2023-02-01T06:43:29;9.30;98.20
32400;DHT22;45045;45.440;9.178;2023-02-01T06:46:00;9.30;98.10
32400;DHT22;45045;45.440;9.178;2023-02-01T06:48:27;9.30;98.50
32400;DHT22;45045;45.440;9.178;2023-02-01T06:50:56;9.30;98.90
32400;DHT22;45045;45.440;9.178;2023-02-01T06:53:22;9.40;98.40
32400;DHT22;45045;45.440;9.178;2023-02-01T06:56:02;9.40;98.40
32400;DHT22;45045;45.440;9.178;2023-02-01T06:58:32;9.40;98.20
32400;DHT22;45045;45.440;9.178;2023-02-01T07:01:04;9.40;97.90
32400;DHT22;45045;45.440;9.178;2023-02-01T07:03:32;9.30;98.10
32400;DHT22;45045;45.440;9.178;2023-02-01T07:05:58;9.30;97.20
32400;DHT22;45045;45.440;9.178;2023-02-01T07:08:29;9.30;96.90
32400;DHT22;45045;45.440;9.178;2023-02-01T07:11:03;9.30;97.00
32400;DHT22;45045;45.440;9.178;2023-02-01T07:13:29;9.50;96.80
32400;DHT22;45045;45.440;9.178;2023-02-01T07:16:00;9.50;96.60
32400;DHT22;45045;45.440;9.178;2023-02-01T07:18:27;9.50;96.80
32400;DHT22;45045;45.440;9.178;2023-02-01T07:20:54;9.40;96.70
32400;DHT22;45045;45.440;9.178;2023-02-01T07:23:21;9.40;96.40
32400;DHT22;45045;45.440;9.178;2023-02-01T07:25:48;9.40;95.50
32400;DHT22;45045;45.440;9.178;2023-02-01T07:28:14;9.50;95.40
32400;DHT22;45045;45.440;9.178;2023-02-01T07:30:40;9.40;95.40
32400;DHT22;45045;45.440;9.178;2023-02-01T07:33:07;9.40;94.70
32400;DHT22;45045;45.440;9.178;2023-02-01T07:35:34;9.40;94.60
32400;DHT22;45045;45.440;9.178;2023-02-01T07:38:00;9.40;94.80
32400;DHT22;45045;45.440;9.178;2023-02-01T07:40:25;9.40;93.20
32400;DHT22;45045;45.440;9.178;2023-02-01T07:42:55;9.40;92.90
32400;DHT22;45045;45.440;9.178;2023-02-01T07:45:26;9.80;92.80
32400;DHT22;45045;45.440;9.178;2023-02-01T07:47:54;10.10;92.90
32400;DHT22;45045;45.440;9.178;2023-02-01T07:50:21;10.80;93.70
32400;DHT22;45045;45.440;9.178;2023-02-01T07:52:47;11.00;90.40
32400;DHT22;45045;45.440;9.178;2023-02-01T07:55:12;11.30;89.50
32400;DHT22;45045;45.440;9.178;2023-02-01T07:57:38;10.90;89.70
32400;DHT22;45045;45.440;9.178;2023-02-01T08:00:04;10.80;91.20
32400;DHT22;45045;45.440;9.178;2023-02-01T08:02:48;10.30;91.90
32400;DHT22;45045;45.440;9.178;2023-02-01T08:05:14;10.50;92.20
32400;DHT22;45045;45.440;9.178;2023-02-01T08:07:40;11.00;95.30
32400;DHT22;45045;45.440;9.178;2023-02-01T08:10:06;11.30;91.30
32400;DHT22;45045;45.440;9.178;2023-02-01T08:12:36;11.20;92.20
32400;DHT22;45045;45.440;9.178;2023-02-01T08:15:03;11.10;90.90
32400;DHT22;45045;45.440;9.178;2023-02-01T08:17:29;11.20;91.20
32400;DHT22;45045;45.440;9.178;2023-02-01T08:19:55;11.20;91.10
32400;DHT22;45045;45.440;9.178;2023-02-01T08:22:21;11.20;91.10
32400;DHT22;45045;45.440;9.178;2023-02-01T08:24:50;11.60;90.90
32400;DHT22;45045;45.440;9.178;2023-02-01T08:27:15;11.70;90.60
32400;DHT22;45045;45.440;9.178;2023-02-01T08:29:41;11.80;90.30
32400;DHT22;45045;45.440;9.178;2023-02-01T08:32:07;12.10;89.90
32400;DHT22;45045;45.440;9.178;2023-02-01T08:34:32;12.30;90.30
32400;DHT22;45045;45.440;9.178;2023-02-01T08:36:58;12.90;99.90
32400;DHT22;45045;45.440;9.178;2023-02-01T08:39:24;13.50;99.90
32400;DHT22;45045;45.440;9.178;2023-02-01T08:41:50;13.80;99.90
32400;DHT22;45045;45.440;9.178;2023-02-01T08:44:34;14.00;90.60
32400;DHT22;45045;45.440;9.178;2023-02-01T08:47:00;13.80;94.20
32400;DHT22;45045;45.440;9.178;2023-02-01T08:49:26;13.80;91.70
32400;DHT22;45045;45.440;9.178;2023-02-01T08:51:52;14.00;97.20
32400;DHT22;45045;45.440;9.178;2023-02-01T08:54:17;14.30;96.60
32400;DHT22;45045;45.440;9.178;2023-02-01T08:56:43;14.30;92.90
32400;DHT22;45045;45.440;9.178;2023-02-01T08:59:08;14.30;95.00
32400;DHT22;45045;45.440;9.178;2023-02-01T09:01:34;14.30;93.10
32400;DHT22;45045;45.440;9.178;2023-02-01T09:04:00;14.30;93.40
32400;DHT22;45045;45.440;9.178;2023-02-01T09:06:25;14.30;94.00
32400;DHT22;45045;45.440;9.178;2023-02-01T09:08:51;14.30;93.20
32400;DHT22;45045;45.440;9.178;2023-02-01T09:11:18;14.20;88.10
32400;DHT22;45045;45.440;9.178;2023-02-01T09:13:45;14.00;87.70
32400;DHT22;45045;45.440;9.178;2023-02-01T09:16:11;13.90;77.00
32400;DHT22;45045;45.440;9.178;2023-02-01T09:18:37;13.90;74.30
32400;DHT22;45045;45.440;9.178;2023-02-01T09:21:09;14.00;90.20
32400;DHT22;45045;45.440;9.178;2023-02-01T09:23:35;14.30;93.40
32400;DHT22;45045;45.440;9.178;2023-02-01T09:26:02;14.50;92.10
32400;DHT22;45045;45.440;9.178;2023-02-01T09:28:28;14.60;94.10
32400;DHT22;45045;45.440;9.178;2023-02-01T09:30:56;14.70;91.80
32400;DHT22;45045;45.440;9.178;2023-02-01T09:33:22;14.80;93.10
32400;DHT22;45045;45.440;9.178;2023-02-01T09:35:49;14.90;92.10
32400;DHT22;45045;45.440;9.178;2023-02-01T09:38:20;15.00;94.00
32400;DHT22;45045;45.440;9.178;2023-02-01T09:40:47;15.10;95.50
32400;DHT22;45045;45.440;9.178;2023-02-01T09:43:35;15.30;95.90
32400;DHT22;45045;45.440;9.178;2023-02-01T09:46:26;15.20;92.60
32400;DHT22;45045;45.440;9.178;2023-02-01T09:49:03;15.30;93.00
32400;DHT22;45045;45.440;9.178;2023-02-01T09:51:31;15.30;94.60
32400;DHT22;45045;45.440;9.178;2023-02-01T09:54:15;15.20;71.30
32400;DHT22;45045;45.440;9.178;2023-02-01T09:56:49;15.00;68.30
32400;DHT22;45045;45.440;9.178;2023-02-01T09:59:32;14.80;67.40
32400;DHT22;45045;45.440;9.178;2023-02-01T10:02:02;14.80;68.50
32400;DHT22;45045;45.440;9.178;2023-02-01T10:04:29;14.80;70.10
32400;DHT22;45045;45.440;9.178;2023-02-01T10:16:33;15.00;70.50
32400;DHT22;45045;45.440;9.178;2023-02-01T10:18:34;15.10;71.70
32400;DHT22;45045;45.440;9.178;2023-02-01T10:24:34;15.20;72.20
32400;DHT22;45045;45.440;9.178;2023-02-01T10:27:17;15.30;74.40
32400;DHT22;45045;45.440;9.178;2023-02-01T10:29:49;15.50;77.60
32400;DHT22;45045;45.440;9.178;2023-02-01T10:32:21;15.60;91.50
32400;DHT22;45045;45.440;9.178;2023-02-01T10:34:59;15.80;91.80
32400;DHT22;45045;45.440;9.178;2023-02-01T10:37:30;15.90;92.40
32400;DHT22;45045;45.440;9.178;2023-02-01T10:40:17;16.00;87.40
32400;DHT22;45045;45.440;9.178;2023-02-01T10:42:45;15.90;81.40
32400;DHT22;45045;45.440;9.178;2023-02-01T10:45:21;15.90;82.40
32400;DHT22;45045;45.440;9.178;2023-02-01T10:47:50;15.90;81.60
32400;DHT22;45045;45.440;9.178;2023-02-01T10:53:02;15.90;80.10
32400;DHT22;45045;45.440;9.178;2023-02-01T10:55:38;16.00;80.30
32400;DHT22;45045;45.440;9.178;2023-02-01T10:58:10;16.10;81.10
32400;DHT22;45045;45.440;9.178;2023-02-01T11:03:33;16.20;80.30
32400;DHT22;45045;45.440;9.178;2023-02-01T11:06:01;16.20;80.40
32400;DHT22;45045;45.440;9.178;2023-02-01T11:08:28;16.30;88.60
32400;DHT22;45045;45.440;9.178;2023-02-01T11:11:02;16.40;90.50
32400;DHT22;45045;45.440;9.178;2023-02-01T11:13:32;16.40;91.10
32400;DHT22;45045;45.440;9.178;2023-02-01T11:16:03;16.50;91.70
32400;DHT22;45045;45.440;9.178;2023-02-01T11:18:31;16.50;91.50
32400;DHT22;45045;45.440;9.178;2023-02-01T11:21:00;16.60;91.50
32400;DHT22;45045;45.440;9.178;2023-02-01T11:23:27;16.60;91.30
32400;DHT22;45045;45.440;9.178;2023-02-01T11:25:56;16.70;89.00
32400;DHT22;45045;45.440;9.178;2023-02-01T11:28:33;16.70;84.20
32400;DHT22;45045;45.440;9.178;2023-02-01T11:31:04;16.80;88.90
32400;DHT22;45045;45.440;9.178;2023-02-01T11:33:35;16.80;88.00
32400;DHT22;45045;45.440;9.178;2023-02-01T11:36:16;16.70;82.60
32400;DHT22;45045;45.440;9.178;2023-02-01T11:39:17;16.60;86.10
32400;DHT22;45045;45.440;9.178;2023-02-01T11:42:05;16.60;85.90
32400;DHT22;45045;45.440;9.178;2023-02-01T11:44:42;16.60;83.20
32400;DHT22;45045;45.440;9.178;2023-02-01T11:47:26;16.70;83.70
32400;DHT22;45045;45.440;9.178;2023-02-01T11:50:17;16.80;83.00
32400;DHT22;45045;45.440;9.178;2023-02-01T11:53:05;16.90;82.00
32400;DHT22;45045;45.440;9.178;2023-02-01T11:58:22;16.90;81.80
32400;DHT22;45045;45.440;9.178;2023-02-01T12:11:47;16.70;84.00
32400;DHT22;45045;45.440;9.178;2023-02-01T12:31:08;16.90;91.50
32400;DHT22;45045;45.440;9.178;2023-02-01T12:34:30;17.10;95.40
32400;DHT22;45045;45.440;9.178;2023-02-01T12:47:51;17.20;85.10
32400;DHT22;45045;45.440;9.178;2023-02-01T12:50:25;17.30;93.50
32400;DHT22;45045;45.440;9.178;2023-02-01T12:52:54;17.50;94.30
32400;DHT22;45045;45.440;9.178;2023-02-01T12:55:44;17.50;94.00
32400;DHT22;45045;45.440;9.178;2023-02-01T13:01:00;17.70;94.00
32400;DHT22;45045;45.440;9.178;2023-02-01T13:03:39;17.70;94.10
32400;DHT22;45045;45.440;9.178;2023-02-01T13:06:11;17.80;93.60
32400;DHT22;45045;45.440;9.178;2023-02-01T13:11:09;17.90;93.10
32400;DHT22;45045;45.440;9.178;2023-02-01T13:13:41;17.90;92.60
32400;DHT22;45045;45.440;9.178;2023-02-01T13:16:38;17.90;92.40
32400;DHT22;45045;45.440;9.178;2023-02-01T13:19:19;17.90;91.20
32400;DHT22;45045;45.440;9.178;2023-02-01T13:21:50;17.90;92.20
32400;DHT22;45045;45.440;9.178;2023-02-01T13:24:33;17.80;84.20
32400;DHT22;45045;45.440;9.178;2023-02-01T13:27:01;17.60;85.90
32400;DHT22;45045;45.440;9.178;2023-02-01T13:29:29;17.70;86.20
32400;DHT22;45045;45.440;9.178;2023-02-01T13:35:23;17.80;83.40
32400;DHT22;45045;45.440;9.178;2023-02-01T13:38:24;17.70;85.50
32400;DHT22;45045;45.440;9.178;2023-02-01T13:43:39;17.80;80.80
32400;DHT22;45045;45.440;9.178;2023-02-01T13:46:09;17.90;82.40
32400;DHT22;45045;45.440;9.178;2023-02-01T13:51:06;17.90;81.00
32400;DHT22;45045;45.440;9.178;2023-02-01T13:53:34;17.90;82.30
32400;DHT22;45045;45.440;9.178;2023-02-01T13:56:07;18.10;81.20
32400;DHT22;45045;45.440;9.178;2023-02-01T13:58:40;18.40;80.80
32400;DHT22;45045;45.440;9.178;2023-02-01T14:03:54;18.80;79.30
32400;DHT22;45045;45.440;9.178;2023-02-01T14:11:52;19.00;75.40
32400;DHT22;45045;45.440;9.178;2023-02-01T14:19:32;19.10;75.40
32400;DHT22;45045;45.440;9.178;2023-02-01T14:24:40;19.50;73.30
32400;DHT22;45045;45.440;9.178;2023-02-01T14:29:39;19.20;71.90
32400;DHT22;45045;45.440;9.178;2023-02-01T14:32:20;18.90;72.60
32400;DHT22;45045;45.440;9.178;2023-02-01T14:40:06;18.50;74.80
32400;DHT22;45045;45.440;9.178;2023-02-01T14:42:48;18.50;74.80
32400;DHT22;45045;45.440;9.178;2023-02-01T14:53:20;18.00;76.90
32400;DHT22;45045;45.440;9.178;2023-02-01T14:59:00;18.10;77.00
32400;DHT22;45045;45.440;9.178;2023-02-01T15:01:35;18.20;75.90
32400;DHT22;45045;45.440;9.178;2023-02-01T15:04:12;18.00;76.20
32400;DHT22;45045;45.440;9.178;2023-02-01T15:09:28;18.00;76.30
32400;DHT22;45045;45.440;9.178;2023-02-01T15:15:17;18.00;77.20
32400;DHT22;45045;45.440;9.178;2023-02-01T15:17:55;17.90;77.10
32400;DHT22;45045;45.440;9.178;2023-02-01T15:20:29;17.90;77.80
32400;DHT22;45045;45.440;9.178;2023-02-01T15:25:30;18.00;77.70
32400;DHT22;45045;45.440;9.178;2023-02-01T15:27:57;17.90;78.00
32400;DHT22;45045;45.440;9.178;2023-02-01T15:30:27;17.90;78.20
32400;DHT22;45045;45.440;9.178;2023-02-01T15:33:06;17.70;78.90
32400;DHT22;45045;45.440;9.178;2023-02-01T15:35:38;17.60;79.30
32400;DHT22;45045;45.440;9.178;2023-02-01T15:38:41;17.70;79.40
32400;DHT22;45045;45.440;9.178;2023-02-01T15:43:41;18.00;80.10
32400;DHT22;45045;45.440;9.178;2023-02-01T15:46:09;17.70;79.80
32400;DHT22;45045;45.440;9.178;2023-02-01T15:48:45;17.80;80.00
32400;DHT22;45045;45.440;9.178;2023-02-01T15:51:23;18.00;80.00
32400;DHT22;45045;45.440;9.178;2023-02-01T15:54:14;18.10;79.70
32400;DHT22;45045;45.440;9.178;2023-02-01T15:56:50;18.00;80.00
32400;DHT22;45045;45.440;9.178;2023-02-01T15:59:21;17.70;80.90
32400;DHT22;45045;45.440;9.178;2023-02-01T16:01:47;17.50;82.90
32400;DHT22;45045;45.440;9.178;2023-02-01T16:04:28;17.40;82.70
32400;DHT22;45045;45.440;9.178;2023-02-01T16:07:00;17.40;83.20
32400;DHT22;45045;45.440;9.178;2023-02-01T16:09:40;17.50;83.20
32400;DHT22;45045;45.440;9.178;2023-02-01T16:15:24;17.40;83.30
32400;DHT22;45045;45.440;9.178;2023-02-01T16:17:49;17.30;83.90
32400;DHT22;45045;45.440;9.178;2023-02-01T16:20:15;17.10;84.50
32400;DHT22;45045;45.440;9.178;2023-02-01T16:22:41;17.00;85.10
32400;DHT22;45045;45.440;9.178;2023-02-01T16:25:07;16.80;85.70
32400;DHT22;45045;45.440;9.178;2023-02-01T16:27:32;16.50;87.40
32400;DHT22;45045;45.440;9.178;2023-02-01T16:29:58;16.40;88.40
32400;DHT22;45045;45.440;9.178;2023-02-01T16:32:23;16.30;89.40
32400;DHT22;45045;45.440;9.178;2023-02-01T16:34:49;16.20;89.80
32400;DHT22;45045;45.440;9.178;2023-02-01T16:37:25;16.20;90.20
32400;DHT22;45045;45.440;9.178;2023-02-01T16:39:52;16.10;90.30
32400;DHT22;45045;45.440;9.178;2023-02-01T16:42:18;16.00;90.40
32400;DHT22;45045;45.440;9.178;2023-02-01T16:44:44;16.20;90.30
32400;DHT22;45045;45.440;9.178;2023-02-01T16:47:17;16.10;90.40
32400;DHT22;45045;45.440;9.178;2023-02-01T16:49:44;16.30;90.20
32400;DHT22;45045;45.440;9.178;2023-02-01T16:52:17;16.10;90.40
32400;DHT22;45045;45.440;9.178;2023-02-01T16:54:44;16.00;90.40
32400;DHT22;45045;45.440;9.178;2023-02-01T16:57:14;16.10;90.20
32400;DHT22;45045;45.440;9.178;2023-02-01T16:59:41;16.00;90.20
32400;DHT22;45045;45.440;9.178;2023-02-01T17:02:15;15.80;90.60
32400;DHT22;45045;45.440;9.178;2023-02-01T17:04:41;15.80;90.80
32400;DHT22;45045;45.440;9.178;2023-02-01T17:07:09;15.60;90.90
32400;DHT22;45045;45.440;9.178;2023-02-01T17:09:36;15.70;91.20
32400;DHT22;45045;45.440;9.178;2023-02-01T17:12:03;15.60;91.20
32400;DHT22;45045;45.440;9.178;2023-02-01T17:14:32;15.60;91.10
32400;DHT22;45045;45.440;9.178;2023-02-01T17:17:00;15.70;91.00
32400;DHT22;45045;45.440;9.178;2023-02-01T17:19:25;15.50;91.20
32400;DHT22;45045;45.440;9.178;2023-02-01T17:21:53;15.60;91.40
32400;DHT22;45045;45.440;9.178;2023-02-01T17:24:23;15.50;91.50
32400;DHT22;45045;45.440;9.178;2023-02-01T17:26:49;15.30;92.00
32400;DHT22;45045;45.440;9.178;2023-02-01T17:29:16;15.20;92.50
32400;DHT22;45045;45.440;9.178;2023-02-01T17:31:49;15.10;92.90
32400;DHT22;45045;45.440;9.178;2023-02-01T17:34:15;15.10;93.10
32400;DHT22;45045;45.440;9.178;2023-02-01T17:36:44;15.00;93.40
32400;DHT22;45045;45.440;9.178;2023-02-01T17:39:11;14.90;93.70
32400;DHT22;45045;45.440;9.178;2023-02-01T17:41:58;15.10;94.10
32400;DHT22;45045;45.440;9.178;2023-02-01T17:44:24;15.10;93.80
32400;DHT22;45045;45.440;9.178;2023-02-01T17:46:49;14.80;94.30
32400;DHT22;45045;45.440;9.178;2023-02-01T17:49:15;14.60;94.80
32400;DHT22;45045;45.440;9.178;2023-02-01T17:51:41;14.70;94.80
32400;DHT22;45045;45.440;9.178;2023-02-01T17:54:12;14.80;94.70
32400;DHT22;45045;45.440;9.178;2023-02-01T17:56:38;15.10;94.60
32400;DHT22;45045;45.440;9.178;2023-02-01T17:59:04;15.10;94.30
32400;DHT22;45045;45.440;9.178;2023-02-01T18:01:29;14.80;94.80
32400;DHT22;45045;45.440;9.178;2023-02-01T18:03:55;14.60;95.40
32400;DHT22;45045;45.440;9.178;2023-02-01T18:06:23;14.50;95.80
32400;DHT22;45045;45.440;9.178;2023-02-01T18:08:51;14.50;96.10
32400;DHT22;45045;45.440;9.178;2023-02-01T18:11:24;14.50;96.10
32400;DHT22;45045;45.440;9.178;2023-02-01T18:13:51;14.50;96.30
32400;DHT22;45045;45.440;9.178;2023-02-01T18:16:25;14.50;96.50
32400;DHT22;45045;45.440;9.178;2023-02-01T18:18:52;14.40;96.60
32400;DHT22;45045;45.440;9.178;2023-02-01T18:21:19;14.10;97.10
32400;DHT22;45045;45.440;9.178;2023-02-01T18:23:45;14.00;96.90
32400;DHT22;45045;45.440;9.178;2023-02-01T18:26:14;14.20;96.50
32400;DHT22;45045;45.440;9.178;2023-02-01T18:28:40;14.40;96.40
32400;DHT22;45045;45.440;9.178;2023-02-01T18:31:13;14.30;96.30
32400;DHT22;45045;45.440;9.178;2023-02-01T18:33:41;14.10;95.90
32400;DHT22;45045;45.440;9.178;2023-02-01T18:36:11;14.10;96.30